createdAt,value
2023-05-14T00:01:02.640Z,4.85
2023-05-14T00:03:29.140Z,4.85
2023-05-14T00:05:55.571Z,4.43
2023-05-14T00:08:22.014Z,5.00
2023-05-14T00:10:48.418Z,5.40
2023-05-14T00:13:14.812Z,5.35
2023-05-14T00:15:41.376Z,4.75
2023-05-14T00:18:07.993Z,7.10
2023-05-14T00:20:34.477Z,6.03
2023-05-14T00:23:00.955Z,5.63
2023-05-14T00:25:27.516Z,5.55
2023-05-14T00:27:53.942Z,5.13
2023-05-14T00:30:20.492Z,5.15
2023-05-14T00:32:46.952Z,5.38
2023-05-14T00:35:13.408Z,5.22
2023-05-14T00:37:39.914Z,4.53
2023-05-14T00:40:08.507Z,4.90
2023-05-14T00:42:35.026Z,5.05
2023-05-14T00:45:01.471Z,5.40
2023-05-14T00:47:28.021Z,4.60
2023-05-14T00:49:54.511Z,4.97
2023-05-14T00:52:22.008Z,5.15
2023-05-14T00:54:49.096Z,4.78
2023-05-14T00:57:15.575Z,5.15
2023-05-14T00:59:42.687Z,5.55
2023-05-14T01:02:09.193Z,5.55
2023-05-14T01:04:35.655Z,5.93
2023-05-14T01:07:20.873Z,5.07
2023-05-14T01:10:02.727Z,5.72
2023-05-14T01:12:48.627Z,5.30
2023-05-14T01:15:30.821Z,6.03
2023-05-14T01:18:05.592Z,9.13
2023-05-14T01:20:32.079Z,10.40
2023-05-14T01:22:58.575Z,8.07
2023-05-14T01:25:25.909Z,5.95
2023-05-14T01:27:52.197Z,5.35
2023-05-14T01:30:37.832Z,5.97
2023-05-14T01:33:10.554Z,5.78
2023-05-14T01:35:37.292Z,5.30
2023-05-14T01:38:05.131Z,5.20
2023-05-14T01:40:32.339Z,4.82
2023-05-14T01:42:58.885Z,4.60
2023-05-14T01:45:25.388Z,4.43
2023-05-14T01:47:51.992Z,4.88
2023-05-14T01:50:18.656Z,4.45
2023-05-14T01:52:45.456Z,4.85
2023-05-14T01:55:11.928Z,4.40
2023-05-14T01:57:38.347Z,4.68
2023-05-14T02:00:05.593Z,4.18
2023-05-14T02:02:32.045Z,4.43
2023-05-14T02:04:58.484Z,4.50
2023-05-14T02:07:24.943Z,4.63
2023-05-14T02:09:51.358Z,4.40
2023-05-14T02:12:17.726Z,4.22
2023-05-14T02:14:44.141Z,4.90
2023-05-14T02:17:10.581Z,4.68
2023-05-14T02:19:36.991Z,4.53
2023-05-14T02:22:03.488Z,4.78
2023-05-14T02:24:29.978Z,4.63
2023-05-14T02:26:56.372Z,4.82
2023-05-14T02:29:22.799Z,4.43
2023-05-14T02:31:49.345Z,4.80
2023-05-14T02:34:16.228Z,4.80
2023-05-14T02:36:42.660Z,4.57
2023-05-14T02:39:09.126Z,4.70
2023-05-14T02:41:35.716Z,4.20
2023-05-14T02:44:02.199Z,4.63
2023-05-14T02:46:28.717Z,4.60
2023-05-14T02:48:55.202Z,4.70
2023-05-14T02:51:21.833Z,5.00
2023-05-14T02:53:48.504Z,5.07
2023-05-14T02:56:14.953Z,5.28
2023-05-14T02:58:41.536Z,4.57
2023-05-14T03:01:08.596Z,5.05
2023-05-14T03:03:35.687Z,5.10
2023-05-14T03:06:02.382Z,4.60
2023-05-14T03:08:28.832Z,5.10
2023-05-14T03:10:55.391Z,4.85
2023-05-14T03:13:21.817Z,5.20
2023-05-14T03:15:48.504Z,5.18
2023-05-14T03:18:15.066Z,5.20
2023-05-14T03:20:41.920Z,5.15
2023-05-14T03:23:08.346Z,5.50
2023-05-14T03:25:34.768Z,5.10
2023-05-14T03:28:01.247Z,4.82
2023-05-14T03:30:27.718Z,5.10
2023-05-14T03:32:54.326Z,4.75
2023-05-14T03:35:21.018Z,5.30
2023-05-14T03:37:48.245Z,5.43
2023-05-14T03:40:14.708Z,5.38
2023-05-14T03:42:41.116Z,5.35
2023-05-14T03:45:08.238Z,5.63
2023-05-14T03:47:34.696Z,5.18
2023-05-14T03:50:01.183Z,5.15
2023-05-14T03:52:27.572Z,4.53
2023-05-14T03:54:53.975Z,4.25
2023-05-14T03:57:21.019Z,3.92
2023-05-14T03:59:47.429Z,4.78
2023-05-14T04:02:13.882Z,4.32
2023-05-14T04:04:41.023Z,4.65
2023-05-14T04:07:08.486Z,5.43
2023-05-14T04:09:34.895Z,5.30
2023-05-14T04:12:01.326Z,5.38
2023-05-14T04:14:27.717Z,4.63
2023-05-14T04:16:54.136Z,5.18
2023-05-14T04:19:20.692Z,4.93
2023-05-14T04:21:47.142Z,4.93
2023-05-14T04:24:13.554Z,4.53
2023-05-14T04:26:40.013Z,4.40
2023-05-14T04:29:06.464Z,4.78
2023-05-14T04:31:33.191Z,4.43
2023-05-14T04:33:59.677Z,4.43
2023-05-14T04:36:26.239Z,4.22
2023-05-14T04:38:52.704Z,3.60
2023-05-14T04:41:19.192Z,3.67
2023-05-14T04:43:46.986Z,3.80
2023-05-14T04:46:13.866Z,3.30
2023-05-14T04:48:40.363Z,3.70
2023-05-14T04:51:07.262Z,3.65
2023-05-14T04:53:33.799Z,3.88
2023-05-14T04:56:00.260Z,4.07
2023-05-14T04:58:28.830Z,3.90
2023-05-14T05:00:55.291Z,4.32
2023-05-14T05:03:22.123Z,4.20
2023-05-14T05:05:48.596Z,4.15
2023-05-14T05:08:15.069Z,4.03
2023-05-14T05:10:41.488Z,4.00
2023-05-14T05:13:07.869Z,4.07
2023-05-14T05:15:34.255Z,4.22
2023-05-14T05:18:00.793Z,4.28
2023-05-14T05:20:28.211Z,4.63
2023-05-14T05:22:54.782Z,4.20
2023-05-14T05:25:21.431Z,4.15
2023-05-14T05:27:47.877Z,4.22
2023-05-14T05:30:14.318Z,4.22
2023-05-14T05:32:40.929Z,4.13
2023-05-14T05:35:07.664Z,4.55
2023-05-14T05:37:34.194Z,4.70
2023-05-14T05:40:00.643Z,4.32
2023-05-14T05:42:27.136Z,4.25
2023-05-14T05:44:53.546Z,4.28
2023-05-14T05:47:20.025Z,4.50
2023-05-14T05:49:46.486Z,4.00
2023-05-14T05:52:13.203Z,4.03
2023-05-14T05:54:39.846Z,4.07
2023-05-14T05:57:06.263Z,4.22
2023-05-14T05:59:32.806Z,4.00
2023-05-14T06:01:59.269Z,3.85
2023-05-14T06:04:25.689Z,4.88
2023-05-14T06:06:52.061Z,4.22
2023-05-14T06:09:18.674Z,4.20
2023-05-14T06:11:45.114Z,4.07
2023-05-14T06:14:11.621Z,4.00
2023-05-14T06:16:38.174Z,3.75
2023-05-14T06:19:04.787Z,4.05
2023-05-14T06:21:31.343Z,3.80
2023-05-14T06:23:57.800Z,3.50
2023-05-14T06:26:24.198Z,3.88
2023-05-14T06:28:50.605Z,4.18
2023-05-14T06:31:18.132Z,4.07
2023-05-14T06:33:45.134Z,3.42
2023-05-14T06:36:11.686Z,3.60
2023-05-14T06:38:38.134Z,3.55
2023-05-14T06:41:04.840Z,3.58
2023-05-14T06:43:31.288Z,3.47
2023-05-14T06:45:57.814Z,3.83
2023-05-14T06:48:24.403Z,3.80
2023-05-14T06:50:50.905Z,3.70
2023-05-14T06:53:17.438Z,3.40
2023-05-14T06:55:43.868Z,3.50
2023-05-14T06:58:10.353Z,3.75
2023-05-14T07:00:36.794Z,3.55
2023-05-14T07:03:03.352Z,3.53
2023-05-14T07:05:29.898Z,3.25
2023-05-14T07:07:56.378Z,3.50
2023-05-14T07:10:23.162Z,3.05
2023-05-14T07:12:49.886Z,3.35
2023-05-14T07:15:16.622Z,3.22
2023-05-14T07:17:43.105Z,3.13
2023-05-14T07:20:10.011Z,3.13
2023-05-14T07:22:36.474Z,3.10
2023-05-14T07:25:03.143Z,3.30
2023-05-14T07:27:29.596Z,3.08
2023-05-14T07:29:56.082Z,3.53
2023-05-14T07:32:22.530Z,3.35
2023-05-14T07:34:49.006Z,3.30
2023-05-14T07:37:15.453Z,3.50
2023-05-14T07:39:41.951Z,3.47
2023-05-14T07:42:08.424Z,3.35
2023-05-14T07:44:34.891Z,3.20
2023-05-14T07:47:01.368Z,3.30
2023-05-14T07:49:27.817Z,3.10
2023-05-14T07:51:54.271Z,3.10
2023-05-14T07:54:20.799Z,3.00
2023-05-14T07:56:47.213Z,3.03
2023-05-14T07:59:13.773Z,3.05
2023-05-14T08:01:40.543Z,3.58
2023-05-14T08:04:07.033Z,3.00
2023-05-14T08:06:34.104Z,2.72
2023-05-14T08:09:00.635Z,2.80
2023-05-14T08:11:27.058Z,2.55
2023-05-14T08:13:53.508Z,2.80
2023-05-14T08:16:19.981Z,2.78
2023-05-14T08:18:46.448Z,2.58
2023-05-14T08:21:12.926Z,2.95
2023-05-14T08:23:39.347Z,2.70
2023-05-14T08:26:06.044Z,3.03
2023-05-14T08:28:32.550Z,2.95
2023-05-14T08:30:58.989Z,3.33
2023-05-14T08:33:25.450Z,3.28
2023-05-14T08:35:53.246Z,2.88
2023-05-14T08:38:19.685Z,3.15
2023-05-14T08:40:56.389Z,2.97
2023-05-14T08:43:26.437Z,2.95
2023-05-14T08:45:58.126Z,3.47
2023-05-14T08:48:27.022Z,4.03
2023-05-14T08:50:53.612Z,3.05
2023-05-14T08:53:20.339Z,3.35
2023-05-14T08:55:48.057Z,3.47
2023-05-14T08:58:14.531Z,3.20
2023-05-14T09:00:41.108Z,3.47
2023-05-14T09:03:07.831Z,3.70
2023-05-14T09:05:34.471Z,3.20
2023-05-14T09:08:00.954Z,3.20
2023-05-14T09:10:27.517Z,3.45
2023-05-14T09:12:54.320Z,3.17
2023-05-14T09:15:21.078Z,3.72
2023-05-14T09:17:48.568Z,2.95
2023-05-14T09:20:15.278Z,3.03
2023-05-14T09:22:42.048Z,3.30
2023-05-14T09:25:11.917Z,2.97
2023-05-14T09:27:38.870Z,2.85
2023-05-14T09:30:10.682Z,2.92
2023-05-14T09:32:44.250Z,2.65
2023-05-14T09:35:17.042Z,3.20
2023-05-14T09:37:53.632Z,2.92
2023-05-14T09:40:21.701Z,2.72
2023-05-14T09:42:49.311Z,2.80
2023-05-14T09:45:16.465Z,2.63
2023-05-14T09:47:43.180Z,2.70
2023-05-14T09:50:10.003Z,2.65
2023-05-14T09:52:37.291Z,2.88
2023-05-14T09:55:04.175Z,2.55
2023-05-14T09:57:30.886Z,2.88
2023-05-14T09:59:57.326Z,2.75
2023-05-14T10:02:25.089Z,2.83
2023-05-14T10:04:54.405Z,2.70
2023-05-14T10:07:27.423Z,2.70
2023-05-14T10:09:59.315Z,2.20
2023-05-14T10:12:28.910Z,2.60
2023-05-14T10:14:57.677Z,2.58
2023-05-14T10:17:26.404Z,2.75
2023-05-14T10:19:54.740Z,2.40
2023-05-14T10:22:27.489Z,2.58
2023-05-14T10:24:54.428Z,2.80
2023-05-14T10:27:21.560Z,2.78
2023-05-14T10:29:55.447Z,2.45
2023-05-14T10:32:25.102Z,2.42
2023-05-14T10:34:52.634Z,2.60
2023-05-14T10:37:21.715Z,2.55
2023-05-14T10:39:54.033Z,2.45
2023-05-14T10:42:23.112Z,2.65
2023-05-14T10:45:06.357Z,2.45
2023-05-14T10:47:33.964Z,2.45
2023-05-14T10:50:03.765Z,2.70
2023-05-14T10:52:30.972Z,2.70
2023-05-14T10:55:02.658Z,2.53
2023-05-14T10:57:31.828Z,2.50
2023-05-14T11:00:00.356Z,2.80
2023-05-14T11:02:28.916Z,2.50
2023-05-14T11:04:56.402Z,2.28
2023-05-14T11:07:28.595Z,2.28
2023-05-14T11:10:03.436Z,2.85
2023-05-14T11:12:30.257Z,3.38
2023-05-14T11:14:58.203Z,2.80
2023-05-14T11:17:29.003Z,2.60
2023-05-14T11:19:56.041Z,2.50
2023-05-14T11:22:22.777Z,2.67
2023-05-14T11:24:49.544Z,2.38
2023-05-14T11:27:17.295Z,2.40
2023-05-14T11:29:47.745Z,2.60
2023-05-14T11:32:15.348Z,2.70
2023-05-14T11:34:42.845Z,2.58
2023-05-14T11:37:10.409Z,2.83
2023-05-14T11:39:39.672Z,2.90
2023-05-14T11:42:11.873Z,2.60
2023-05-14T11:44:38.855Z,2.80
2023-05-14T11:47:06.354Z,2.33
2023-05-14T11:49:35.480Z,2.50
2023-05-14T11:52:03.494Z,2.90
2023-05-14T11:54:30.492Z,2.38
2023-05-14T11:56:58.005Z,2.95
2023-05-14T11:59:25.753Z,2.78
2023-05-14T12:01:55.181Z,2.70
2023-05-14T12:04:22.944Z,2.65
2023-05-14T12:06:50.362Z,2.65
2023-05-14T12:09:18.072Z,2.60
2023-05-14T12:11:46.716Z,2.60
2023-05-14T12:14:17.937Z,2.50
2023-05-14T12:16:45.149Z,2.97
2023-05-14T12:19:12.593Z,2.50
2023-05-14T12:21:39.472Z,2.70
2023-05-14T12:24:10.658Z,2.65
2023-05-14T12:26:38.745Z,2.38
2023-05-14T12:29:06.933Z,2.50
2023-05-14T12:31:36.575Z,2.60
2023-05-14T12:34:04.212Z,2.33
2023-05-14T12:36:32.589Z,2.90
2023-05-14T12:39:03.643Z,2.70
2023-05-14T12:41:30.879Z,2.80
2023-05-14T12:43:57.287Z,2.40
2023-05-14T12:46:23.785Z,2.78
2023-05-14T12:48:52.353Z,2.78
2023-05-14T12:51:19.777Z,2.40
2023-05-14T12:53:46.214Z,2.60
2023-05-14T12:56:13.825Z,2.78
2023-05-14T12:58:40.313Z,2.83
2023-05-14T13:01:06.847Z,2.65
2023-05-14T13:03:33.363Z,2.55
2023-05-14T13:05:59.804Z,2.58
2023-05-14T13:08:26.255Z,2.78
2023-05-14T13:10:53.900Z,2.60
2023-05-14T13:13:20.299Z,2.80
2023-05-14T13:15:46.897Z,2.85
2023-05-14T13:18:14.155Z,2.55
2023-05-14T13:20:43.241Z,2.40
2023-05-14T13:23:09.846Z,2.15
2023-05-14T13:25:36.317Z,2.10
2023-05-14T13:28:02.826Z,2.05
2023-05-14T13:30:29.741Z,2.00
2023-05-14T13:32:56.210Z,2.10
2023-05-14T13:35:22.771Z,2.70
2023-05-14T13:37:49.398Z,2.30
2023-05-14T13:40:15.803Z,2.30
2023-05-14T13:42:42.320Z,1.95
2023-05-14T13:45:09.121Z,2.50
2023-05-14T13:47:35.944Z,2.10
2023-05-14T13:50:02.369Z,21.92
2023-05-14T13:52:28.845Z,3.83
2023-05-14T13:54:56.767Z,4.57
2023-05-14T13:57:23.324Z,2.20
2023-05-14T13:59:49.804Z,3.10
2023-05-14T14:02:16.282Z,2.60
2023-05-14T14:04:42.899Z,1.90
2023-05-14T14:07:09.442Z,1.90
2023-05-14T14:09:36.869Z,2.03
2023-05-14T14:12:04.517Z,1.90
2023-05-14T14:14:31.256Z,1.90
2023-05-14T14:16:57.726Z,1.73
2023-05-14T14:19:24.126Z,2.03
2023-05-14T14:24:22.026Z,2.60
2023-05-14T14:26:48.434Z,2.55
2023-05-14T14:29:14.880Z,2.72
2023-05-14T14:31:41.364Z,3.40
2023-05-14T14:34:07.810Z,2.30
2023-05-14T14:36:34.242Z,1.77
2023-05-14T14:39:00.678Z,1.60
2023-05-14T14:41:27.334Z,1.67
2023-05-14T14:43:53.839Z,1.80
2023-05-14T14:46:20.332Z,2.00
2023-05-14T14:48:46.788Z,1.70
2023-05-14T14:51:13.365Z,1.85
2023-05-14T14:53:40.478Z,1.67
2023-05-14T14:56:07.077Z,1.52
2023-05-14T14:58:33.608Z,2.30
2023-05-14T15:01:01.118Z,1.33
2023-05-14T15:03:27.780Z,1.40
2023-05-14T15:05:54.393Z,1.60
2023-05-14T15:08:25.507Z,1.48
2023-05-14T15:10:52.098Z,1.58
2023-05-14T15:13:18.852Z,1.33
2023-05-14T15:15:45.290Z,1.40
2023-05-14T15:18:11.897Z,1.40
2023-05-14T15:20:41.390Z,1.63
2023-05-14T15:23:07.866Z,1.48
2023-05-14T15:25:34.461Z,1.30
2023-05-14T15:28:00.884Z,1.40
2023-05-14T15:30:27.350Z,1.50
2023-05-14T15:32:53.980Z,1.95
2023-05-14T15:35:20.432Z,1.58
2023-05-14T15:37:46.900Z,1.50
2023-05-14T15:40:13.399Z,1.50
2023-05-14T15:42:44.756Z,1.58
2023-05-14T15:45:13.038Z,1.38
2023-05-14T15:47:40.300Z,1.63
2023-05-14T15:50:07.697Z,1.50
2023-05-14T15:52:35.106Z,1.80
2023-05-14T15:55:01.775Z,1.40
2023-05-14T15:57:28.285Z,1.40
2023-05-14T15:59:54.761Z,1.65
2023-05-14T16:02:21.190Z,2.30
2023-05-14T16:04:49.479Z,2.22
2023-05-14T16:07:16.071Z,2.15
2023-05-14T16:09:42.564Z,1.70
2023-05-14T16:12:09.279Z,1.60
2023-05-14T16:14:38.606Z,1.65
2023-05-14T16:17:06.424Z,1.95
2023-05-14T16:19:32.904Z,1.77
2023-05-14T16:21:59.370Z,1.50
2023-05-14T16:24:25.766Z,1.80
2023-05-14T16:26:52.164Z,1.92
2023-05-14T16:29:18.633Z,1.80
2023-05-14T16:31:45.112Z,1.60
2023-05-14T16:34:11.683Z,2.28
2023-05-14T16:36:38.124Z,2.10
2023-05-14T16:39:07.804Z,2.45
2023-05-14T16:41:35.443Z,1.90
2023-05-14T16:44:01.916Z,2.15
2023-05-14T16:46:29.395Z,2.35
2023-05-14T16:48:56.163Z,2.20
2023-05-14T16:51:22.749Z,2.10
2023-05-14T16:53:49.246Z,2.28
2023-05-14T16:56:15.668Z,2.00
2023-05-14T16:58:42.335Z,2.15
2023-05-14T17:01:09.896Z,2.10
2023-05-14T17:03:36.829Z,2.15
2023-05-14T17:06:04.561Z,2.40
2023-05-14T17:08:33.491Z,2.10
2023-05-14T17:11:00.099Z,2.30
2023-05-14T17:13:26.704Z,2.75
2023-05-14T17:15:53.151Z,2.25
2023-05-14T17:18:19.640Z,2.53
2023-05-14T17:20:46.555Z,2.90
2023-05-14T17:23:13.459Z,3.20
2023-05-14T17:25:39.921Z,2.70
2023-05-14T17:28:06.599Z,3.05
2023-05-14T17:30:33.056Z,2.67
2023-05-14T17:32:59.840Z,3.60
2023-05-14T17:35:26.436Z,4.40
2023-05-14T17:37:52.960Z,4.47
2023-05-14T17:40:19.429Z,6.03
2023-05-14T17:42:46.290Z,5.63
2023-05-14T17:45:13.453Z,5.35
2023-05-14T17:47:40.248Z,5.60
2023-05-14T17:50:07.286Z,7.22
2023-05-14T17:52:33.766Z,11.15
2023-05-14T17:55:00.360Z,6.85
2023-05-14T17:57:27.014Z,3.72
2023-05-14T17:59:53.433Z,3.97
2023-05-14T18:02:19.875Z,4.72
2023-05-14T18:04:46.924Z,3.30
2023-05-14T18:07:13.499Z,3.33
2023-05-14T18:09:39.894Z,2.60
2023-05-14T18:12:06.847Z,2.92
2023-05-14T18:14:33.254Z,2.33
2023-05-14T18:16:59.692Z,2.67
2023-05-14T18:19:26.151Z,2.28
2023-05-14T18:21:55.251Z,2.80
2023-05-14T18:24:22.215Z,2.70
2023-05-14T18:26:48.683Z,2.55
2023-05-14T18:29:15.149Z,2.80
2023-05-14T18:31:41.564Z,2.40
2023-05-14T18:34:08.262Z,2.47
2023-05-14T18:36:34.698Z,2.60
2023-05-14T18:39:01.089Z,2.53
2023-05-14T18:41:27.599Z,2.58
2023-05-14T18:43:54.007Z,2.85
2023-05-14T18:46:20.540Z,2.50
2023-05-14T18:48:46.986Z,2.40
2023-05-14T18:51:13.439Z,2.30
2023-05-14T18:53:39.871Z,2.70
2023-05-14T18:56:06.378Z,2.75
2023-05-14T18:58:32.802Z,2.65
2023-05-14T19:00:59.257Z,3.53
2023-05-14T19:03:26.028Z,3.03
2023-05-14T19:05:53.380Z,2.70
2023-05-14T19:08:19.837Z,2.60
2023-05-14T19:10:46.600Z,2.90
2023-05-14T19:13:13.036Z,2.70
2023-05-14T19:15:39.686Z,2.65
2023-05-14T19:18:06.295Z,2.88
2023-05-14T19:20:32.876Z,2.72
2023-05-14T19:22:59.307Z,3.00
2023-05-14T19:25:26.027Z,3.35
2023-05-14T19:27:53.611Z,2.63
2023-05-14T19:30:20.645Z,3.13
2023-05-14T19:32:47.119Z,3.00
2023-05-14T19:35:13.555Z,2.70
2023-05-14T19:37:39.992Z,2.97
2023-05-14T19:40:06.992Z,3.30
2023-05-14T19:42:33.426Z,2.78
2023-05-14T19:44:59.825Z,3.28
2023-05-14T19:47:27.425Z,3.13
2023-05-14T19:49:53.855Z,3.25
2023-05-14T19:52:20.320Z,3.40
2023-05-14T19:54:46.723Z,3.45
2023-05-14T19:57:13.155Z,3.28
2023-05-14T19:59:40.287Z,3.55
2023-05-14T20:02:07.729Z,3.50
2023-05-14T20:04:34.813Z,3.50
2023-05-14T20:07:01.509Z,3.28
2023-05-14T20:09:27.953Z,2.90
2023-05-14T20:11:54.413Z,3.28
2023-05-14T20:14:20.820Z,2.75
2023-05-14T20:16:48.867Z,3.20
2023-05-14T20:19:16.209Z,3.00
2023-05-14T20:21:42.776Z,3.00
2023-05-14T20:24:09.221Z,3.15
2023-05-14T20:26:35.789Z,3.20
2023-05-14T20:29:02.221Z,3.05
2023-05-14T20:31:29.045Z,3.30
2023-05-14T20:33:55.517Z,3.40
2023-05-14T20:36:22.234Z,3.50
2023-05-14T20:38:48.802Z,3.88
2023-05-14T20:41:15.215Z,3.50
2023-05-14T20:43:41.637Z,3.67
2023-05-14T20:46:08.995Z,3.60
2023-05-14T20:48:35.473Z,3.42
2023-05-14T20:51:04.684Z,3.63
2023-05-14T20:53:31.185Z,3.95
2023-05-14T20:55:58.835Z,3.20
2023-05-14T20:58:25.341Z,3.67
2023-05-14T21:00:51.806Z,3.58
2023-05-14T21:03:18.442Z,3.88
2023-05-14T21:05:44.991Z,3.65
2023-05-14T21:08:11.590Z,3.38
2023-05-14T21:10:38.043Z,4.05
2023-05-14T21:13:04.492Z,3.90
2023-05-14T21:15:31.378Z,4.20
2023-05-14T21:17:57.839Z,3.90
2023-05-14T21:20:24.262Z,4.07
2023-05-14T21:22:50.716Z,4.38
2023-05-14T21:25:17.177Z,4.20
2023-05-14T21:27:43.574Z,4.10
2023-05-14T21:30:10.614Z,3.95
2023-05-14T21:32:37.203Z,4.45
2023-05-14T21:35:03.788Z,4.35
2023-05-14T21:37:30.260Z,4.38
2023-05-14T21:39:56.649Z,4.20
2023-05-14T21:42:23.246Z,4.22
2023-05-14T21:44:49.785Z,3.90
2023-05-14T21:47:16.382Z,4.55
2023-05-14T21:49:43.181Z,4.25
2023-05-14T21:52:09.640Z,4.45
2023-05-14T21:54:36.053Z,4.32
2023-05-14T21:57:02.707Z,4.35
2023-05-14T21:59:29.122Z,4.57
2023-05-14T22:02:06.915Z,4.40
2023-05-14T22:04:35.060Z,4.63
2023-05-14T22:07:01.574Z,5.05
2023-05-14T22:09:28.016Z,4.90
2023-05-14T22:11:54.471Z,4.55
2023-05-14T22:14:20.856Z,4.97
2023-05-14T22:16:47.311Z,4.50
2023-05-14T22:19:16.614Z,4.82
2023-05-14T22:21:43.156Z,4.57
2023-05-14T22:24:09.534Z,4.53
2023-05-14T22:26:35.980Z,4.75
2023-05-14T22:29:02.501Z,4.75
2023-05-14T22:31:29.352Z,5.00
2023-05-14T22:33:55.834Z,5.15
2023-05-14T22:36:22.230Z,4.90
2023-05-14T22:38:48.660Z,5.05
2023-05-14T22:41:17.361Z,4.68
2023-05-14T22:43:43.826Z,4.50
2023-05-14T22:46:10.354Z,5.28
2023-05-14T22:48:36.833Z,5.18
2023-05-14T22:51:03.260Z,4.65
2023-05-14T22:53:29.743Z,5.18
2023-05-14T22:55:56.740Z,5.20
2023-05-14T22:58:23.213Z,4.93
2023-05-14T23:00:49.970Z,5.13
2023-05-14T23:03:16.475Z,5.28
2023-05-14T23:05:43.001Z,4.95
2023-05-14T23:08:09.515Z,4.50
2023-05-14T23:10:35.931Z,5.20
2023-05-14T23:13:04.565Z,4.90
2023-05-14T23:15:31.285Z,5.38
2023-05-14T23:17:57.787Z,5.15
2023-05-14T23:20:24.386Z,5.40
2023-05-14T23:22:50.838Z,5.82
2023-05-14T23:25:17.240Z,5.53
2023-05-14T23:27:43.673Z,5.80
2023-05-14T23:30:10.745Z,5.68
2023-05-14T23:32:37.217Z,5.40
2023-05-14T23:35:03.997Z,5.80
2023-05-14T23:37:30.490Z,5.45
2023-05-14T23:39:56.989Z,5.68
2023-05-14T23:42:24.656Z,5.80
2023-05-14T23:44:51.059Z,5.75
2023-05-14T23:47:17.483Z,5.55
2023-05-14T23:49:43.908Z,5.38
2023-05-14T23:52:11.296Z,5.97
2023-05-14T23:54:38.798Z,5.70
2023-05-14T23:57:05.450Z,6.05
2023-05-14T23:59:34.989Z,5.10
